LiveATC.Net - Listen to live air traffic control over the Internet!


ICAO: WMKK  IATA: KUL   Airport: Kuala Lumpur International Airport
City: Sepang
Country: Malaysia   Continent: Asia
WMKK METAR Weather: WMKK 201400Z 34004KT 290V030 9999 FEW017CB SCT140 BKN280 26/23 Q1012 NOSIG
WMKK Flight Activity (FlightAware)

WMKK Lumpur Control/Radar (East)
Feed Status: DOWN
Last heard on: 2018-10-27 07:24:02 (24 days 7 hours 8 minutes ago)
WMKK Lumpur Control/Radar (East) Audio Archives
FacilityFrequency
Lumpur Contro/Radar (East)134.250

NOTICE

Unauthorized use prohibited. See LiveATC.net Terms of Service


Find LiveATC Audio Streams


Airport/ARTCC Code

Frequency Search
(e.g., 124.400, 128.75)
Site-wide search
 


Browse LiveATC Feeds
Top 50 LiveATC Feeds
Bad Weather Areas

LiveATC FAQ
Offer a LiveATC Feed
Contact LiveATC.net
Press Inquiries

LiveATC on iPhone
LiveATC on Android

Windows Phone
Windows 8/10

LiveATC Mobile
(Mobile browser)

ATC Audio Archives
Interesting Recordings

LiveATC Forums


Home Page
About LiveATC.net
Make a Donation
Terms of Use
Privacy Policy

Canadian Air Freqs

AIRMETs/SIGMETs

FAA Airport Status
Nat'l Airspace Status
Arrival Demand Charts


Server Software By:
Icecast.org
Liquidsoap